Taylor Ranch, NM

2:38 PM MST on December 09, 2016 (GMT -0700)
Ventana Ranch/ Just F.I.N.E. Ballooning | | Change Station

Elev 5436 ft 35.19 °N, 106.74 °W | Updated 12 days ago

Partly Cloudy
Partly Cloudy
45.0 °F
Feels Like 42 °F
N
6.0
Wind Variable Wind from SW
Gusts 11.0 mph

Today
High -- | Low -- °F
--% Chance of Precip.
Yesterday
High -- | Low -- °F
Precip. -- in
Pressure 30.30 in
Visibility 10.0 miles
Clouds Mostly Cloudy 15000 ft
Windchill 42 °F
Dew Point 27 °F
Humidity 49%
Rainfall 0.00 in
Snow Depth Not available.
7:04 AM 4:54 PM
Waxing Gibbous, 77% visible
METAR KAEG 092047Z 16004KT 10SM BKN150 06/M04 A3030
Pressure 30.30 in
Visibility 10.0 miles
Clouds Mostly Cloudy 15000 ft
Windchill 42 °F
Dew Point 27 °F
Humidity 49%
Rainfall 0.00 in
Snow Depth Not available.
7:04 AM 4:54 PM
Waxing Gibbous, 77% visible
METAR KAEG 092047Z 16004KT 10SM BKN150 06/M04 A3030

10-Day Weather Forecast

Almanac

Astronomy

Dec. 09, 2016 Rise Set
Actual Time
Civil Twilight
Nautical Twilight
Astronomical Twilight
Moon
Length of Visible Light
Length of Day
Tomorrow will be .
, % of the Moon is Illuminated

Today's Extremes

State Highs State Lows

Community

WunderPhotos

Upload Photos

1,956,517 photos uploaded!

WunderBlog® & News

Nearby

Air Quality

  Air Quality AQ Index Pollutant
Not available.

Snow Depth

Station Depth Elevation

Earthquake Activity

City Distance Mag. Time & Date
Minimum magnitude displayed is 2.5.

Coastal Water Temperatures

Place Temperature

Stations

Nearby Weather Stations

Station Location Temp. Windchill Dew Point Humidity Wind Precip. Elev Updated Type
                   

Watches & Warnings

There are currently no watches in effect.